»·PEaware :: SKY96 KPRC-KHII

SKY96 :: KPRC-KHII

FLIGHT INFORMATION

Flight Status: Arrived
Operator:
Sky High Charters
More flights by this operator :: More flights under this callsign
Pilot: Russell S. (24346)
Aircraft: BEECH AIRCRAFT DEBONAIR BONANZA
(BE33)
More flights by this aircraft type
Origin: KPRC Love
United States
Destination: KHII Lake Havasu City
United States
More flights between these airports :: More routes between these airports
Route: +WNSKI2 MUMTE V12 EED
File this flight plan on PilotEdge
Remarks: Sky high 8. Leg1
Altitude:
(Current/Filed)
10,000ft
Speed:
(Current/Filed)
160kts
Departed: 17-Sep-19 11:27 AM
Arrived: 17-Sep-19 12:37 PM
Distance/Time
Traveled:
96nm/1:10
Distance/Time
To Go:
Arrived

Flight Plot

Page will automatically refresh every two minutes.


Map Options




Map Legend


Flown Route
Filed Route
Departure Airport
Arrival Airport
Navaid (VOR, NDB)
Fix

Horizontal Profiles

Position Reports

Time Latitude Longitude Heading Altitude Ground
Speed
17-Sep-19 11:01 34.653854 -112.422584 130 4992ft 0kts
17-Sep-19 11:02 34.653854 -112.422584 130 4992ft 0kts
17-Sep-19 11:03 34.653854 -112.422584 130 4992ft 0kts
17-Sep-19 11:04 34.653854 -112.422584 130 4992ft 0kts
17-Sep-19 11:05 34.653854 -112.422584 130 4992ft 0kts
17-Sep-19 11:06 34.653854 -112.422584 130 4992ft 0kts
17-Sep-19 11:07 34.653854 -112.422584 130 4992ft 0kts
17-Sep-19 11:08 34.653854 -112.422584 130 4992ft 0kts
17-Sep-19 11:09 34.653854 -112.422584 130 4992ft 0kts
17-Sep-19 11:11 34.653854 -112.422584 130 4992ft 0kts
17-Sep-19 11:12 34.653854 -112.422584 130 4992ft 0kts
17-Sep-19 11:13 34.653854 -112.422584 130 4992ft 0kts
17-Sep-19 11:14 34.653854 -112.422584 130 4992ft 0kts
17-Sep-19 11:15 34.653854 -112.422584 130 4992ft 0kts
17-Sep-19 11:16 34.653854 -112.422584 130 4992ft 0kts
17-Sep-19 11:17 34.653854 -112.422584 130 4992ft 0kts
17-Sep-19 11:18 34.653854 -112.422584 130 4992ft 0kts
17-Sep-19 11:19 34.653854 -112.422584 130 4992ft 0kts
17-Sep-19 11:20 34.653854 -112.422584 130 4992ft 0kts
17-Sep-19 11:21 34.653854 -112.422584 130 4992ft 0kts
17-Sep-19 11:22 34.654082 -112.421913 39 4991ft 12kts
17-Sep-19 11:23 34.655964 -112.419337 41 4980ft 16kts
17-Sep-19 11:24 34.660577 -112.414467 40 4954ft 25kts
17-Sep-19 11:25 34.662684 -112.412124 129 4944ft 0kts
17-Sep-19 11:26 34.662684 -112.412124 129 4944ft 0kts
17-Sep-19 11:26 34.660368 -112.413243 220 4953ft 57kts
17-Sep-19 11:28 34.638701 -112.434305 220 5766ft 96kts
17-Sep-19 11:29 34.622015 -112.422480 65 6599ft 119kts
17-Sep-19 11:29 34.633501 -112.392532 109 7265ft 117kts
17-Sep-19 11:31 34.612973 -112.356825 137 8135ft 110kts
17-Sep-19 11:31 34.595772 -112.332650 138 8639ft 116kts
17-Sep-19 11:32 34.574463 -112.302761 139 9236ft 117kts
17-Sep-19 11:34 34.549205 -112.267371 139 9933ft 120kts
17-Sep-19 11:34 34.525767 -112.268755 219 10042ft 123kts
17-Sep-19 11:35 34.500729 -112.301149 233 10035ft 137kts
17-Sep-19 11:37 34.477420 -112.348124 243 10033ft 141kts
17-Sep-19 11:37 34.465115 -112.385059 249 10033ft 142kts
17-Sep-19 11:38 34.455749 -112.431509 257 10033ft 143kts
17-Sep-19 11:39 34.452499 -112.479757 266 10033ft 144kts
17-Sep-19 11:40 34.455641 -112.528541 274 10033ft 146kts
17-Sep-19 11:41 34.465394 -112.576639 283 10023ft 148kts
17-Sep-19 11:42 34.481754 -112.622910 292 10023ft 151kts
17-Sep-19 11:43 34.504710 -112.666129 300 10026ft 153kts
17-Sep-19 11:44 34.533894 -112.704685 310 10026ft 157kts
17-Sep-19 11:45 34.568956 -112.737265 320 10026ft 160kts
17-Sep-19 11:46 34.609160 -112.762362 331 10026ft 164kts
17-Sep-19 11:47 34.653274 -112.778471 342 10026ft 167kts
17-Sep-19 11:48 34.699960 -112.784540 353 10027ft 171kts
17-Sep-19 11:49 34.717491 -112.817579 259 10029ft 144kts
17-Sep-19 11:50 34.717461 -112.866991 267 10027ft 146kts
17-Sep-19 11:51 34.719216 -112.916427 267 10026ft 146kts
17-Sep-19 11:52 34.721008 -112.965815 267 10026ft 146kts
17-Sep-19 11:53 34.722771 -113.015256 266 10026ft 146kts
17-Sep-19 11:54 34.724489 -113.064516 266 10019ft 146kts
17-Sep-19 11:55 34.726047 -113.109307 266 10000ft 146kts
17-Sep-19 11:56 34.727815 -113.160417 266 9978ft 146kts
17-Sep-19 11:57 34.729496 -113.209616 266 9957ft 146kts
17-Sep-19 11:58 34.731164 -113.259015 266 9937ft 145kts
17-Sep-19 11:59 34.732798 -113.308108 265 9925ft 145kts
17-Sep-19 12:00 34.734400 -113.356903 265 9924ft 144kts
17-Sep-19 12:01 34.735991 -113.405759 265 9924ft 143kts
17-Sep-19 12:02 34.737530 -113.454130 266 9924ft 143kts
17-Sep-19 12:03 34.739078 -113.502566 266 9924ft 143kts
17-Sep-19 12:04 34.740495 -113.550892 265 9924ft 142kts
17-Sep-19 12:05 34.742074 -113.599319 265 9923ft 143kts
17-Sep-19 12:06 34.743473 -113.647581 265 9924ft 142kts
17-Sep-19 12:07 34.744918 -113.696212 265 9927ft 143kts
17-Sep-19 12:08 34.746386 -113.744734 265 9927ft 144kts
17-Sep-19 12:09 34.747833 -113.793608 265 9913ft 144kts
17-Sep-19 12:10 34.749306 -113.842608 265 9887ft 145kts
17-Sep-19 12:11 34.750734 -113.891991 265 9861ft 146kts
17-Sep-19 12:12 34.752140 -113.941628 265 9836ft 147kts
17-Sep-19 12:13 34.753532 -113.991413 265 9811ft 147kts
17-Sep-19 12:14 34.754904 -114.041328 264 9799ft 147kts
17-Sep-19 12:15 34.756224 -114.091091 264 9794ft 147kts
17-Sep-19 12:16 34.757563 -114.141031 264 9732ft 151kts
17-Sep-19 12:17 34.758978 -114.194917 265 9151ft 163kts
17-Sep-19 12:18 34.760455 -114.251164 265 8449ft 168kts
17-Sep-19 12:19 34.761879 -114.307674 267 7652ft 164kts
17-Sep-19 12:20 34.763211 -114.362596 268 6845ft 160kts
17-Sep-19 12:21 34.764534 -114.415804 270 6242ft 147kts
17-Sep-19 12:22 34.765611 -114.460365 271 6246ft 121kts
17-Sep-19 12:23 34.788631 -114.486033 339 5717ft 148kts
17-Sep-19 12:24 34.829638 -114.499730 340 4972ft 153kts
17-Sep-19 12:25 34.867058 -114.511578 350 4943ft 131kts
17-Sep-19 12:26 34.869419 -114.478800 170 4950ft 137kts
17-Sep-19 12:27 34.832163 -114.475969 184 4951ft 133kts
17-Sep-19 12:28 34.795190 -114.474926 184 4951ft 133kts
17-Sep-19 12:29 34.758109 -114.473524 182 4859ft 140kts
17-Sep-19 12:30 34.715512 -114.469811 168 4272ft 163kts
17-Sep-19 12:31 34.682229 -114.445809 152 3629ft 117kts
17-Sep-19 12:32 34.655843 -114.424889 152 2918ft 115kts
17-Sep-19 12:33 34.629212 -114.403697 151 2060ft 109kts
17-Sep-19 12:34 34.605827 -114.382843 150 1659ft 99kts
17-Sep-19 12:35 34.585422 -114.368300 153 1016ft 77kts
17-Sep-19 12:36 34.574207 -114.361566 237 752ft 14kts
17-Sep-19 12:37 34.574170 -114.361640 242 752ft 0kts
17-Sep-19 12:38 34.574170 -114.361640 242 752ft 0kts
17-Sep-19 12:39 34.574170 -114.361640 242 752ft 0kts
17-Sep-19 12:40 34.574170 -114.361640 242 752ft 0kts
17-Sep-19 12:41 34.574170 -114.361640 242 752ft 0kts

Navigation Log

Ident Type
Flight plan parsing failed, navigation log unavailable